sensor_id;sensor_type;location;lat;lon;timestamp;pressure;altitude;pressure_sealevel;temperature;humidity
7105;BME280;3594;42.152;24.714;2022-10-17T00:00:33;-23998.06;;;6.49;nan
7105;BME280;3594;42.152;24.714;2022-10-17T00:02:59;-24001.47;;;6.61;nan
7105;BME280;3594;42.152;24.714;2022-10-17T00:05:24;-24002.72;;;6.65;nan
7105;BME280;3594;42.152;24.714;2022-10-17T00:07:51;-24003.44;;;6.68;nan
7105;BME280;3594;42.152;24.714;2022-10-17T00:10:18;-24001.31;;;6.60;nan
7105;BME280;3594;42.152;24.714;2022-10-17T00:12:43;-24004.88;;;6.73;nan
7105;BME280;3594;42.152;24.714;2022-10-17T00:15:10;-24004.88;;;6.73;nan
7105;BME280;3594;42.152;24.714;2022-10-17T00:17:38;-24008.69;;;6.87;nan
7105;BME280;3594;42.152;24.714;2022-10-17T00:20:04;-24008.13;;;6.85;nan
7105;BME280;3594;42.152;24.714;2022-10-17T00:22:29;-24008.00;;;6.84;nan
7105;BME280;3594;42.152;24.714;2022-10-17T00:24:55;-23999.03;;;6.52;nan
7105;BME280;3594;42.152;24.714;2022-10-17T00:27:20;-23999.03;;;6.52;nan
7105;BME280;3594;42.152;24.714;2022-10-17T00:29:50;-23993.22;;;6.32;nan
7105;BME280;3594;42.152;24.714;2022-10-17T00:32:17;-23998.63;;;6.51;nan
7105;BME280;3594;42.152;24.714;2022-10-17T00:34:43;-23998.63;;;6.51;nan
7105;BME280;3594;42.152;24.714;2022-10-17T00:37:08;-23987.69;;;6.12;nan
7105;BME280;3594;42.152;24.714;2022-10-17T00:39:34;-23993.09;;;6.31;nan
7105;BME280;3594;42.152;24.714;2022-10-17T00:42:00;-23993.09;;;6.31;nan
7105;BME280;3594;42.152;24.714;2022-10-17T00:47:01;-23990.66;;;6.22;nan
7105;BME280;3594;42.152;24.714;2022-10-17T00:49:32;-23988.25;;;6.14;nan
7105;BME280;3594;42.152;24.714;2022-10-17T00:52:02;-23988.81;;;6.16;nan
7105;BME280;3594;42.152;24.714;2022-10-17T00:54:33;-23976.59;;;5.72;nan
7105;BME280;3594;42.152;24.714;2022-10-17T00:57:02;-23983.56;;;5.97;nan
7105;BME280;3594;42.152;24.714;2022-10-17T01:04:35;-23984.97;;;6.02;nan
7105;BME280;3594;42.152;24.714;2022-10-17T01:07:01;-23984.97;;;6.02;nan
7105;BME280;3594;42.152;24.714;2022-10-17T01:09:26;-23985.41;;;6.04;nan
7105;BME280;3594;42.152;24.714;2022-10-17T01:15:53;-23985.97;;;6.06;nan
7105;BME280;3594;42.152;24.714;2022-10-17T01:21:14;-23983.13;;;5.96;nan
7105;BME280;3594;42.152;24.714;2022-10-17T01:27:14;-23982.56;;;5.94;nan
7105;BME280;3594;42.152;24.714;2022-10-17T01:30:21;-23970.22;;;5.50;nan
7105;BME280;3594;42.152;24.714;2022-10-17T01:32:57;-23977.03;;;5.74;nan
7105;BME280;3594;42.152;24.714;2022-10-17T01:35:31;-23978.44;;;5.79;nan
7105;BME280;3594;42.152;24.714;2022-10-17T01:40:54;-23977.44;;;5.75;nan
7105;BME280;3594;42.152;24.714;2022-10-17T01:43:25;-23976.31;;;5.71;nan
7105;BME280;3594;42.152;24.714;2022-10-17T01:45:58;-23975.31;;;5.68;nan
7105;BME280;3594;42.152;24.714;2022-10-17T01:48:32;-23974.31;;;5.68;nan
7105;BME280;3594;42.152;24.714;2022-10-17T01:51:05;-23950.28;;;4.79;nan
7105;BME280;3594;42.152;24.714;2022-10-17T01:53:35;-23973.91;;;5.63;nan
7105;BME280;3594;42.152;24.714;2022-10-17T01:56:05;-23973.34;;;5.61;nan
7105;BME280;3594;42.152;24.714;2022-10-17T01:58:36;-23970.63;;;5.51;nan
7105;BME280;3594;42.152;24.714;2022-10-17T02:01:06;-23961.38;;;5.18;nan
7105;BME280;3594;42.152;24.714;2022-10-17T02:03:34;-23958.53;;;5.08;nan
7105;BME280;3594;42.152;24.714;2022-10-17T02:06:00;-23969.22;;;5.46;nan
7105;BME280;3594;42.152;24.714;2022-10-17T02:08:58;-23968.63;;;5.44;nan
7105;BME280;3594;42.152;24.714;2022-10-17T02:11:25;-23964.81;;;5.30;nan
7105;BME280;3594;42.152;24.714;2022-10-17T02:16:56;-23970.22;;;5.50;nan
7105;BME280;3594;42.152;24.714;2022-10-17T02:24:58;-23966.50;;;5.37;nan
7105;BME280;3594;42.152;24.714;2022-10-17T02:33:08;-23961.97;;;5.20;nan
7105;BME280;3594;42.152;24.714;2022-10-17T02:35:37;-23969.34;;;5.47;nan
7105;BME280;3594;42.152;24.714;2022-10-17T02:38:05;-23968.22;;;5.43;nan
7105;BME280;3594;42.152;24.714;2022-10-17T02:40:32;-23963.53;;;5.26;nan
7105;BME280;3594;42.152;24.714;2022-10-17T02:42:59;-23963.09;;;5.24;nan
7105;BME280;3594;42.152;24.714;2022-10-17T02:45:26;-23959.81;;;5.13;nan
7105;BME280;3594;42.152;24.714;2022-10-17T02:48:01;-23958.97;;;5.10;nan
7105;BME280;3594;42.152;24.714;2022-10-17T02:50:41;-23960.81;;;5.16;nan
7105;BME280;3594;42.152;24.714;2022-10-17T02:53:13;-23956.25;;;5.00;nan
7105;BME280;3594;42.152;24.714;2022-10-17T02:55:49;-23952.72;;;4.87;nan
7105;BME280;3594;42.152;24.714;2022-10-17T02:58:29;-23957.41;;;5.04;nan
7105;BME280;3594;42.152;24.714;2022-10-17T03:00:55;-23956.00;;;4.99;nan
7105;BME280;3594;42.152;24.714;2022-10-17T03:03:24;-23951.56;;;4.83;nan
7105;BME280;3594;42.152;24.714;2022-10-17T03:05:50;-23958.81;;;5.09;nan
7105;BME280;3594;42.152;24.714;2022-10-17T03:08:16;-23953.44;;;4.90;nan
7105;BME280;3594;42.152;24.714;2022-10-17T03:10:42;-23953.44;;;4.90;nan
7105;BME280;3594;42.152;24.714;2022-10-17T03:13:07;-23957.97;;;5.06;nan
7105;BME280;3594;42.152;24.714;2022-10-17T03:15:33;-23956.56;;;5.01;nan
7105;BME280;3594;42.152;24.714;2022-10-17T03:17:58;-23956.13;;;5.00;nan
7105;BME280;3594;42.152;24.714;2022-10-17T03:20:24;-23958.69;;;5.09;nan
7105;BME280;3594;42.152;24.714;2022-10-17T03:22:49;-23954.84;;;4.95;nan
7105;BME280;3594;42.152;24.714;2022-10-17T03:25:15;-23954.56;;;4.94;nan
7105;BME280;3594;42.152;24.714;2022-10-17T03:27:40;-23958.53;;;5.08;nan
7105;BME280;3594;42.152;24.714;2022-10-17T03:30:06;-23956.13;;;5.00;nan
7105;BME280;3594;42.152;24.714;2022-10-17T03:32:32;-23953.13;;;4.89;nan
7105;BME280;3594;42.152;24.714;2022-10-17T03:34:58;-23954.56;;;4.94;nan
7105;BME280;3594;42.152;24.714;2022-10-17T03:37:24;-23954.28;;;4.93;nan
7105;BME280;3594;42.152;24.714;2022-10-17T03:39:49;-23953.84;;;4.92;nan
7105;BME280;3594;42.152;24.714;2022-10-17T03:42:16;-23955.41;;;4.97;nan
7105;BME280;3594;42.152;24.714;2022-10-17T03:44:41;-23961.38;;;5.18;nan
7105;BME280;3594;42.152;24.714;2022-10-17T03:47:07;-23959.69;;;5.12;nan
7105;BME280;3594;42.152;24.714;2022-10-17T03:49:32;-23962.38;;;5.22;nan
7105;BME280;3594;42.152;24.714;2022-10-17T03:51:58;-23949.88;;;4.77;nan
7105;BME280;3594;42.152;24.714;2022-10-17T03:54:23;-23958.53;;;5.08;nan
7105;BME280;3594;42.152;24.714;2022-10-17T03:57:11;-23963.25;;;5.25;nan
7105;BME280;3594;42.152;24.714;2022-10-17T03:59:57;-23955.69;;;4.98;nan
7105;BME280;3594;42.152;24.714;2022-10-17T04:02:24;-23955.69;;;4.98;nan
7105;BME280;3594;42.152;24.714;2022-10-17T04:04:51;-23945.47;;;4.62;nan
7105;BME280;3594;42.152;24.714;2022-10-17T04:07:17;-23952.56;;;4.87;nan
7105;BME280;3594;42.152;24.714;2022-10-17T04:09:42;-23949.44;;;4.76;nan
7105;BME280;3594;42.152;24.714;2022-10-17T04:12:07;-23953.13;;;4.89;nan
7105;BME280;3594;42.152;24.714;2022-10-17T04:14:33;-23955.00;;;4.96;nan
7105;BME280;3594;42.152;24.714;2022-10-17T04:16:58;-23947.03;;;4.67;nan
7105;BME280;3594;42.152;24.714;2022-10-17T04:19:24;-23959.41;;;5.11;nan
7105;BME280;3594;42.152;24.714;2022-10-17T04:21:50;-23955.28;;;4.97;nan
7105;BME280;3594;42.152;24.714;2022-10-17T04:24:15;-23953.13;;;4.89;nan
7105;BME280;3594;42.152;24.714;2022-10-17T04:26:41;-23952.72;;;4.87;nan
7105;BME280;3594;42.152;24.714;2022-10-17T04:29:06;-23951.56;;;4.83;nan
7105;BME280;3594;42.152;24.714;2022-10-17T04:31:32;-23954.41;;;4.94;nan
7105;BME280;3594;42.152;24.714;2022-10-17T04:33:57;-23954.84;;;4.95;nan
7105;BME280;3594;42.152;24.714;2022-10-17T04:36:23;-23954.56;;;4.94;nan
7105;BME280;3594;42.152;24.714;2022-10-17T04:38:48;-23952.00;;;4.85;nan
7105;BME280;3594;42.152;24.714;2022-10-17T04:41:15;-23961.66;;;5.19;nan
7105;BME280;3594;42.152;24.714;2022-10-17T04:43:41;-23959.41;;;5.11;nan
7105;BME280;3594;42.152;24.714;2022-10-17T04:46:09;-23959.41;;;5.11;nan
7105;BME280;3594;42.152;24.714;2022-10-17T04:48:36;-23963.81;;;5.27;nan
7105;BME280;3594;42.152;24.714;2022-10-17T04:51:07;-23962.81;;;5.23;nan
7105;BME280;3594;42.152;24.714;2022-10-17T04:53:36;-23962.81;;;5.23;nan
7105;BME280;3594;42.152;24.714;2022-10-17T04:56:16;-23964.81;;;5.30;nan
7105;BME280;3594;42.152;24.714;2022-10-17T04:58:43;-23968.63;;;5.44;nan
7105;BME280;3594;42.152;24.714;2022-10-17T05:01:14;-23975.19;;;5.67;nan
7105;BME280;3594;42.152;24.714;2022-10-17T05:03:40;-23971.34;;;5.54;nan
7105;BME280;3594;42.152;24.714;2022-10-17T05:06:10;-23974.03;;;5.63;nan
7105;BME280;3594;42.152;24.714;2022-10-17T05:08:37;-23973.75;;;5.62;nan
7105;BME280;3594;42.152;24.714;2022-10-17T05:11:03;-23973.75;;;5.62;nan
7105;BME280;3594;42.152;24.714;2022-10-17T05:13:30;-23968.50;;;5.44;nan
7105;BME280;3594;42.152;24.714;2022-10-17T05:15:59;-23976.47;;;5.72;nan
7105;BME280;3594;42.152;24.714;2022-10-17T05:18:25;-23983.41;;;5.97;nan
7105;BME280;3594;42.152;24.714;2022-10-17T05:20:51;-23977.31;;;5.75;nan
7105;BME280;3594;42.152;24.714;2022-10-17T05:23:16;-23986.41;;;6.07;nan
7105;BME280;3594;42.152;24.714;2022-10-17T05:25:41;-23974.91;;;5.66;nan
7105;BME280;3594;42.152;24.714;2022-10-17T05:28:07;-23985.56;;;6.04;nan
7105;BME280;3594;42.152;24.714;2022-10-17T05:30:34;-23986.13;;;6.06;nan
7105;BME280;3594;42.152;24.714;2022-10-17T05:33:00;-23987.41;;;6.11;nan
7105;BME280;3594;42.152;24.714;2022-10-17T05:35:25;-23985.84;;;6.05;nan
7105;BME280;3594;42.152;24.714;2022-10-17T05:37:51;-23975.03;;;5.67;nan
7105;BME280;3594;42.152;24.714;2022-10-17T05:40:16;-23975.03;;;5.67;nan
7105;BME280;3594;42.152;24.714;2022-10-17T05:42:48;-23985.84;;;6.05;nan
7105;BME280;3594;42.152;24.714;2022-10-17T05:45:14;-23991.94;;;6.27;nan
7105;BME280;3594;42.152;24.714;2022-10-17T05:47:40;-24001.03;;;6.59;nan
7105;BME280;3594;42.152;24.714;2022-10-17T05:50:07;-24006.44;;;6.79;nan
7105;BME280;3594;42.152;24.714;2022-10-17T05:52:32;-24006.44;;;6.79;nan
7105;BME280;3594;42.152;24.714;2022-10-17T05:54:58;-24014.50;;;7.07;nan
7105;BME280;3594;42.152;24.714;2022-10-17T05:57:24;-24014.38;;;7.07;nan
7105;BME280;3594;42.152;24.714;2022-10-17T05:59:50;-24017.47;;;7.18;nan
7105;BME280;3594;42.152;24.714;2022-10-17T06:02:16;-24023.00;;;7.38;nan
7105;BME280;3594;42.152;24.714;2022-10-17T06:04:41;-24031.38;;;7.68;nan
7105;BME280;3594;42.152;24.714;2022-10-17T06:07:11;-24037.75;;;7.90;nan
7105;BME280;3594;42.152;24.714;2022-10-17T06:09:37;-24034.34;;;7.78;nan
7105;BME280;3594;42.152;24.714;2022-10-17T06:12:03;-24043.00;;;8.09;nan
7105;BME280;3594;42.152;24.714;2022-10-17T06:14:28;-24038.31;;;7.92;nan
7105;BME280;3594;42.152;24.714;2022-10-17T06:16:55;-24033.94;;;7.77;nan
7105;BME280;3594;42.152;24.714;2022-10-17T06:19:20;-24044.56;;;8.15;nan
7105;BME280;3594;42.152;24.714;2022-10-17T06:21:45;-24044.56;;;8.15;nan
7105;BME280;3594;42.152;24.714;2022-10-17T06:24:11;-24051.91;;;8.41;nan
7105;BME280;3594;42.152;24.714;2022-10-17T06:26:36;-24062.38;;;8.78;nan
7105;BME280;3594;42.152;24.714;2022-10-17T06:29:02;-24063.53;;;8.82;nan
7105;BME280;3594;42.152;24.714;2022-10-17T06:31:27;-24068.75;;;9.01;nan
7105;BME280;3594;42.152;24.714;2022-10-17T06:33:53;-24064.09;;;8.84;nan
7105;BME280;3594;42.152;24.714;2022-10-17T06:36:18;-24076.25;;;9.28;nan
7105;BME280;3594;42.152;24.714;2022-10-17T06:38:44;-24074.56;;;9.22;nan
7105;BME280;3594;42.152;24.714;2022-10-17T06:41:13;-24084.72;;;9.58;nan
7105;BME280;3594;42.152;24.714;2022-10-17T06:43:41;-24091.78;;;9.84;nan
7105;BME280;3594;42.152;24.714;2022-10-17T06:46:14;-24089.66;;;9.76;nan
7105;BME280;3594;42.152;24.714;2022-10-17T06:48:39;-24093.78;;;9.91;nan
7105;BME280;3594;42.152;24.714;2022-10-17T06:51:06;-24094.06;;;9.92;nan
7105;BME280;3594;42.152;24.714;2022-10-17T06:53:34;-24098.84;;;10.09;nan
7105;BME280;3594;42.152;24.714;2022-10-17T06:56:01;-24096.31;;;10.00;nan
7105;BME280;3594;42.152;24.714;2022-10-17T06:58:29;-24099.84;;;10.12;nan
7105;BME280;3594;42.152;24.714;2022-10-17T07:00:58;-24101.69;;;10.19;nan
7105;BME280;3594;42.152;24.714;2022-10-17T07:03:23;-24110.72;;;10.51;nan
7105;BME280;3594;42.152;24.714;2022-10-17T07:05:53;-24115.66;;;10.69;nan
7105;BME280;3594;42.152;24.714;2022-10-17T07:08:19;-24120.44;;;10.86;nan
7105;BME280;3594;42.152;24.714;2022-10-17T07:10:45;-24119.75;;;10.84;nan
7105;BME280;3594;42.152;24.714;2022-10-17T07:13:10;-24118.75;;;10.80;nan
7105;BME280;3594;42.152;24.714;2022-10-17T07:15:36;-24127.06;;;11.10;nan
7105;BME280;3594;42.152;24.714;2022-10-17T07:18:02;-24131.16;;;11.25;nan
7105;BME280;3594;42.152;24.714;2022-10-17T07:20:27;-24137.50;;;11.47;nan
7105;BME280;3594;42.152;24.714;2022-10-17T07:22:53;-24127.63;;;11.12;nan
7105;BME280;3594;42.152;24.714;2022-10-17T07:25:18;-24135.38;;;11.40;nan
7105;BME280;3594;42.152;24.714;2022-10-17T07:27:44;-24137.50;;;11.47;nan
7105;BME280;3594;42.152;24.714;2022-10-17T07:30:09;-24144.41;;;11.72;nan
7105;BME280;3594;42.152;24.714;2022-10-17T07:32:35;-24150.19;;;11.93;nan
7105;BME280;3594;42.152;24.714;2022-10-17T07:35:00;-24157.22;;;12.18;nan
7105;BME280;3594;42.152;24.714;2022-10-17T07:37:26;-24149.47;;;11.90;nan
7105;BME280;3594;42.152;24.714;2022-10-17T07:39:51;-24151.72;;;11.99;nan
7105;BME280;3594;42.152;24.714;2022-10-17T07:42:17;-24156.38;;;12.15;nan
7105;BME280;3594;42.152;24.714;2022-10-17T07:44:42;-24156.53;;;12.16;nan
7105;BME280;3594;42.152;24.714;2022-10-17T07:47:12;-24153.00;;;12.03;nan
7105;BME280;3594;42.152;24.714;2022-10-17T07:49:37;-24151.59;;;11.98;nan
7105;BME280;3594;42.152;24.714;2022-10-17T07:52:12;-24156.09;;;12.14;nan
7105;BME280;3594;42.152;24.714;2022-10-17T07:54:38;-24160.19;;;12.29;nan
7105;BME280;3594;42.152;24.714;2022-10-17T07:57:03;-24175.22;;;12.83;nan
7105;BME280;3594;42.152;24.714;2022-10-17T07:59:29;-24185.63;;;13.20;nan
7105;BME280;3594;42.152;24.714;2022-10-17T08:01:55;-24189.56;;;13.35;nan
7105;BME280;3594;42.152;24.714;2022-10-17T08:04:20;-24183.38;;;13.12;nan
7105;BME280;3594;42.152;24.714;2022-10-17T08:06:46;-24196.59;;;13.60;nan
7105;BME280;3594;42.152;24.714;2022-10-17T08:09:11;-24200.25;;;13.73;nan
7105;BME280;3594;42.152;24.714;2022-10-17T08:11:37;-24200.94;;;13.76;nan
7105;BME280;3594;42.152;24.714;2022-10-17T08:14:02;-24200.25;;;13.73;nan
7105;BME280;3594;42.152;24.714;2022-10-17T08:16:28;-24200.25;;;13.73;nan
7105;BME280;3594;42.152;24.714;2022-10-17T08:18:53;-24217.50;;;14.35;nan
7105;BME280;3594;42.152;24.714;2022-10-17T08:21:19;-24213.16;;;14.20;nan
7105;BME280;3594;42.152;24.714;2022-10-17T08:23:44;-24217.66;;;14.36;nan
7105;BME280;3594;42.152;24.714;2022-10-17T08:26:10;-24222.00;;;14.51;nan
7105;BME280;3594;42.152;24.714;2022-10-17T08:28:38;-24231.94;;;14.87;nan
7105;BME280;3594;42.152;24.714;2022-10-17T08:31:09;-24228.44;;;14.75;nan
7105;BME280;3594;42.152;24.714;2022-10-17T08:33:36;-24239.78;;;15.16;nan
7105;BME280;3594;42.152;24.714;2022-10-17T08:36:04;-24230.53;;;14.82;nan
7105;BME280;3594;42.152;24.714;2022-10-17T08:38:30;-24237.81;;;15.09;nan
7105;BME280;3594;42.152;24.714;2022-10-17T08:41:01;-24242.72;;;15.26;nan
7105;BME280;3594;42.152;24.714;2022-10-17T08:46:04;-24251.69;;;15.59;nan
7105;BME280;3594;42.152;24.714;2022-10-17T08:48:33;-24258.97;;;15.85;nan
7105;BME280;3594;42.152;24.714;2022-10-17T08:51:06;-24260.22;;;15.89;nan
7105;BME280;3594;42.152;24.714;2022-10-17T08:53:54;-24257.00;;;15.78;nan
7105;BME280;3594;42.152;24.714;2022-10-17T08:56:25;-24262.19;;;15.97;nan
7105;BME280;3594;42.152;24.714;2022-10-17T08:58:51;-24259.66;;;15.87;nan
7105;BME280;3594;42.152;24.714;2022-10-17T09:01:44;-24267.78;;;16.17;nan
7105;BME280;3594;42.152;24.714;2022-10-17T09:07:21;-24273.50;;;16.38;nan
7105;BME280;3594;42.152;24.714;2022-10-17T09:15:24;-24292.09;;;17.05;nan
7105;BME280;3594;42.152;24.714;2022-10-17T09:18:18;-24289.31;;;16.95;nan
7105;BME280;3594;42.152;24.714;2022-10-17T09:20:51;-24292.53;;;17.06;nan
7105;BME280;3594;42.152;24.714;2022-10-17T09:25:51;-24287.06;;;16.87;nan
7105;BME280;3594;42.152;24.714;2022-10-17T09:28:33;-24291.81;;;17.04;nan
7105;BME280;3594;42.152;24.714;2022-10-17T09:31:04;-24297.81;;;17.26;nan
7105;BME280;3594;42.152;24.714;2022-10-17T09:33:38;-24302.00;;;17.41;nan
7105;BME280;3594;42.152;24.714;2022-10-17T09:36:10;-24298.66;;;17.29;nan
7105;BME280;3594;42.152;24.714;2022-10-17T09:38:40;-24309.56;;;17.68;nan
7105;BME280;3594;42.152;24.714;2022-10-17T09:41:14;-24306.75;;;17.58;nan
7105;BME280;3594;42.152;24.714;2022-10-17T09:43:40;-24301.59;;;17.39;nan
7105;BME280;3594;42.152;24.714;2022-10-17T09:46:10;-24312.47;;;17.79;nan
7105;BME280;3594;42.152;24.714;2022-10-17T09:48:40;-24320.16;;;18.06;nan
7105;BME280;3594;42.152;24.714;2022-10-17T09:51:07;-24321.41;;;18.11;nan
7105;BME280;3594;42.152;24.714;2022-10-17T09:53:36;-24327.25;;;18.32;nan
7105;BME280;3594;42.152;24.714;2022-10-17T09:56:07;-24330.59;;;18.44;nan
7105;BME280;3594;42.152;24.714;2022-10-17T09:58:52;-24336.72;;;18.67;nan
7105;BME280;3594;42.152;24.714;2022-10-17T10:01:24;-24329.75;;;18.41;nan
7105;BME280;3594;42.152;24.714;2022-10-17T10:04:10;-24338.53;;;18.73;nan
7105;BME280;3594;42.152;24.714;2022-10-17T10:06:37;-24345.50;;;18.98;nan
7105;BME280;3594;42.152;24.714;2022-10-17T10:09:03;-24343.97;;;18.93;nan
7105;BME280;3594;42.152;24.714;2022-10-17T10:11:47;-24341.19;;;18.83;nan
7105;BME280;3594;42.152;24.714;2022-10-17T10:14:30;-24331.00;;;18.46;nan
7105;BME280;3594;42.152;24.714;2022-10-17T10:16:59;-24325.72;;;18.27;nan
7105;BME280;3594;42.152;24.714;2022-10-17T10:22:16;-24332.13;;;18.50;nan
7105;BME280;3594;42.152;24.714;2022-10-17T10:24:40;-24337.56;;;18.70;nan
7105;BME280;3594;42.152;24.714;2022-10-17T10:27:14;-24337.84;;;18.71;nan
7105;BME280;3594;42.152;24.714;2022-10-17T10:29:42;-24340.91;;;18.82;nan
7105;BME280;3594;42.152;24.714;2022-10-17T10:37:32;-24346.63;;;19.03;nan
7105;BME280;3594;42.152;24.714;2022-10-17T10:40:03;-24343.56;;;18.91;nan
7105;BME280;3594;42.152;24.714;2022-10-17T10:42:36;-24345.38;;;18.98;nan
7105;BME280;3594;42.152;24.714;2022-10-17T10:45:15;-24341.19;;;18.83;nan
7105;BME280;3594;42.152;24.714;2022-10-17T10:47:53;-24340.78;;;18.81;nan
7105;BME280;3594;42.152;24.714;2022-10-17T10:50:26;-24337.56;;;18.70;nan
7105;BME280;3594;42.152;24.714;2022-10-17T10:55:52;-24327.81;;;18.34;nan
7105;BME280;3594;42.152;24.714;2022-10-17T11:00:50;-24332.56;;;18.51;nan
7105;BME280;3594;42.152;24.714;2022-10-17T11:03:31;-24339.38;;;18.76;nan
7105;BME280;3594;42.152;24.714;2022-10-17T11:06:11;-24341.75;;;18.85;nan
7105;BME280;3594;42.152;24.714;2022-10-17T11:08:43;-24345.66;;;18.99;nan
7105;BME280;3594;42.152;24.714;2022-10-17T11:11:16;-24343.69;;;18.92;nan
7105;BME280;3594;42.152;24.714;2022-10-17T11:13:56;-24348.69;;;19.10;nan
7105;BME280;3594;42.152;24.714;2022-10-17T11:16:32;-24348.69;;;19.10;nan
7105;BME280;3594;42.152;24.714;2022-10-17T11:19:19;-24358.16;;;19.45;nan
7105;BME280;3594;42.152;24.714;2022-10-17T11:22:18;-24354.81;;;19.32;nan
7105;BME280;3594;42.152;24.714;2022-10-17T11:24:51;-24347.88;;;19.07;nan
7105;BME280;3594;42.152;24.714;2022-10-17T11:27:21;-24347.59;;;19.06;nan
7105;BME280;3594;42.152;24.714;2022-10-17T11:29:48;-24355.81;;;19.36;nan
7105;BME280;3594;42.152;24.714;2022-10-17T11:37:35;-24356.22;;;19.37;nan
7105;BME280;3594;42.152;24.714;2022-10-17T11:40:08;-24351.47;;;19.20;nan
7105;BME280;3594;42.152;24.714;2022-10-17T11:45:18;-24360.38;;;19.53;nan
7105;BME280;3594;42.152;24.714;2022-10-17T11:47:50;-24360.38;;;19.53;nan
7105;BME280;3594;42.152;24.714;2022-10-17T11:50:45;-24369.28;;;19.85;nan
7105;BME280;3594;42.152;24.714;2022-10-17T11:53:16;-24370.53;;;19.90;nan
7105;BME280;3594;42.152;24.714;2022-10-17T11:55:43;-24370.53;;;19.90;nan
7105;BME280;3594;42.152;24.714;2022-10-17T12:01:14;-24380.25;;;20.25;nan
7105;BME280;3594;42.152;24.714;2022-10-17T12:09:15;-24372.22;;;19.96;nan
7105;BME280;3594;42.152;24.714;2022-10-17T12:14:37;-24359.84;;;19.51;nan
7105;BME280;3594;42.152;24.714;2022-10-17T12:22:51;-24369.28;;;19.85;nan
7105;BME280;3594;42.152;24.714;2022-10-17T12:25:20;-24364.00;;;19.66;nan
7105;BME280;3594;42.152;24.714;2022-10-17T12:27:47;-24369.28;;;19.85;nan
7105;BME280;3594;42.152;24.714;2022-10-17T12:30:15;-24377.91;;;20.16;nan
7105;BME280;3594;42.152;24.714;2022-10-17T12:35:28;-24382.34;;;20.33;nan
7105;BME280;3594;42.152;24.714;2022-10-17T12:51:06;-24369.84;;;19.87;nan
7105;BME280;3594;42.152;24.714;2022-10-17T12:56:20;-24364.84;;;19.69;nan
7105;BME280;3594;42.152;24.714;2022-10-17T12:58:50;-24366.66;;;19.75;nan
7105;BME280;3594;42.152;24.714;2022-10-17T13:01:28;-24354.41;;;19.31;nan
7105;BME280;3594;42.152;24.714;2022-10-17T13:03:55;-24355.94;;;19.36;nan
7105;BME280;3594;42.152;24.714;2022-10-17T13:06:26;-24366.22;;;19.74;nan
7105;BME280;3594;42.152;24.714;2022-10-17T13:09:04;-24369.16;;;19.84;nan
7105;BME280;3594;42.152;24.714;2022-10-17T13:11:32;-24367.91;;;19.80;nan
7105;BME280;3594;42.152;24.714;2022-10-17T13:14:01;-24360.66;;;19.54;nan
7105;BME280;3594;42.152;24.714;2022-10-17T13:16:31;-24359.69;;;19.50;nan
7105;BME280;3594;42.152;24.714;2022-10-17T13:18:58;-24361.22;;;19.56;nan
7105;BME280;3594;42.152;24.714;2022-10-17T13:21:23;-24363.59;;;19.64;nan
7105;BME280;3594;42.152;24.714;2022-10-17T13:23:49;-24358.03;;;19.44;nan
7105;BME280;3594;42.152;24.714;2022-10-17T13:26:24;-24358.16;;;19.45;nan
7105;BME280;3594;42.152;24.714;2022-10-17T13:29:12;-24360.13;;;19.52;nan
7105;BME280;3594;42.152;24.714;2022-10-17T13:31:41;-24356.50;;;19.38;nan
7105;BME280;3594;42.152;24.714;2022-10-17T13:34:24;-24349.94;;;19.15;nan
7105;BME280;3594;42.152;24.714;2022-10-17T13:36:54;-24347.19;;;19.05;nan
7105;BME280;3594;42.152;24.714;2022-10-17T13:39:26;-24342.72;;;19.05;nan
7105;BME280;3594;42.152;24.714;2022-10-17T13:41:54;-24348.97;;;19.11;nan
7105;BME280;3594;42.152;24.714;2022-10-17T13:44:23;-24338.25;;;18.72;nan
7105;BME280;3594;42.152;24.714;2022-10-17T13:46:49;-24255.06;;;15.71;nan
7105;BME280;3594;42.152;24.714;2022-10-17T13:49:32;-24339.38;;;18.76;nan
7105;BME280;3594;42.152;24.714;2022-10-17T13:51:59;-24343.84;;;18.92;nan
7105;BME280;3594;42.152;24.714;2022-10-17T13:54:42;-24349.69;;;19.14;nan
7105;BME280;3594;42.152;24.714;2022-10-17T13:57:25;-24349.41;;;19.13;nan
7105;BME280;3594;42.152;24.714;2022-10-17T14:02:23;-24341.47;;;18.84;nan
7105;BME280;3594;42.152;24.714;2022-10-17T14:10:05;-24343.97;;;18.93;nan
7105;BME280;3594;42.152;24.714;2022-10-17T14:12:32;-24346.06;;;19.01;nan
7105;BME280;3594;42.152;24.714;2022-10-17T14:15:01;-24336.72;;;18.67;nan
7105;BME280;3594;42.152;24.714;2022-10-17T14:17:29;-24336.72;;;18.67;nan
7105;BME280;3594;42.152;24.714;2022-10-17T14:19:58;-24331.00;;;18.46;nan
7105;BME280;3594;42.152;24.714;2022-10-17T14:22:29;-24342.56;;;18.88;nan
7105;BME280;3594;42.152;24.714;2022-10-17T14:24:57;-24340.06;;;18.79;nan
7105;BME280;3594;42.152;24.714;2022-10-17T14:29:53;-24340.91;;;18.82;nan
7105;BME280;3594;42.152;24.714;2022-10-17T14:32:19;-24331.72;;;18.48;nan
7105;BME280;3594;42.152;24.714;2022-10-17T14:34:45;-24336.88;;;18.67;nan
7105;BME280;3594;42.152;24.714;2022-10-17T14:37:41;-24336.44;;;18.66;nan
7105;BME280;3594;42.152;24.714;2022-10-17T14:40:24;-24326.28;;;18.29;nan
7105;BME280;3594;42.152;24.714;2022-10-17T14:42:56;-24326.56;;;18.30;nan
7105;BME280;3594;42.152;24.714;2022-10-17T14:48:01;-24328.22;;;18.36;nan
7105;BME280;3594;42.152;24.714;2022-10-17T14:50:29;-24320.56;;;18.08;nan
7105;BME280;3594;42.152;24.714;2022-10-17T14:55:54;-24323.78;;;18.20;nan
7105;BME280;3594;42.152;24.714;2022-10-17T14:58:38;-24314.72;;;17.87;nan
7105;BME280;3594;42.152;24.714;2022-10-17T15:01:04;-24319.31;;;18.03;nan
7105;BME280;3594;42.152;24.714;2022-10-17T15:03:29;-24316.94;;;17.95;nan
7105;BME280;3594;42.152;24.714;2022-10-17T15:05:54;-24311.78;;;17.76;nan
7105;BME280;3594;42.152;24.714;2022-10-17T15:08:22;-24311.22;;;17.74;nan
7105;BME280;3594;42.152;24.714;2022-10-17T15:10:49;-24304.66;;;17.50;nan
7105;BME280;3594;42.152;24.714;2022-10-17T15:13:15;-24306.06;;;17.55;nan
7105;BME280;3594;42.152;24.714;2022-10-17T15:15:41;-24306.06;;;17.55;nan
7105;BME280;3594;42.152;24.714;2022-10-17T15:18:10;-24305.78;;;17.54;nan
7105;BME280;3594;42.152;24.714;2022-10-17T15:20:36;-24302.16;;;17.41;nan
7105;BME280;3594;42.152;24.714;2022-10-17T15:23:02;-24300.47;;;17.35;nan
7105;BME280;3594;42.152;24.714;2022-10-17T15:25:29;-24291.69;;;17.03;nan
7105;BME280;3594;42.152;24.714;2022-10-17T15:27:55;-24290.00;;;16.97;nan
7105;BME280;3594;42.152;24.714;2022-10-17T15:30:25;-24288.88;;;16.93;nan
7105;BME280;3594;42.152;24.714;2022-10-17T15:32:52;-24290.44;;;16.99;nan
7105;BME280;3594;42.152;24.714;2022-10-17T15:35:19;-24288.34;;;16.91;nan
7105;BME280;3594;42.152;24.714;2022-10-17T15:37:45;-24286.50;;;16.85;nan
7105;BME280;3594;42.152;24.714;2022-10-17T15:40:17;-24276.31;;;16.48;nan